EDWEDWARDS AFB
METARs for airports near EDW, sorted by distance:
N 0 nm 2311' KEDW 221755Z 23006KT 90SM BKN250 28/01 A2986
NW 15 nm 2801' KMHV 221800Z 19009G15KT 10SM CLR 27/M00 A2990
SW 19 nm 2350' KWJF 221756Z 27009G16KT 10SM CLR 28/03 A2988
SW 19 nm 2542' KPMD 221753Z 25011G14KT 10SM CLR 28/03 A2989
NW 30 nm 4001' KTSP 221815Z 32010KT 10SM CLR 23/11 A2995
SE 31 nm 2885' KVCV 221815Z 15011G18KT 9SM CLR 29/M04 A2991
SW 46 nm 1003' KWHP 221755Z 11005KT 2SM SCT014 17/13 A2994
N 47 nm 2284' KNID 221756Z 00000KT 10SM BKN250 28/06 A2985
SW 48 nm 778' KBUR 221753Z 15006KT 2SM BR OVC008 17/13 A2993
S 48 nm 1443' KCCB 221815Z 20006KT 2 1/2SM HZ CLR 18/15 A2992
S 49 nm 1013' KPOC 221747Z 27005KT 2 1/2SM BR BKN012 17/13 A2993
S 49 nm 295' KEMT 221745Z 00000KT 3SM BR OVC013 16/13 A2993
SW 51 nm 802' KVNY 221751Z 19006KT 2 1/2SM HZ OVC009 16/13 A2992
S 53 nm 944' KONT 221821Z 22006KT 2 1/2SM HZ SCT018 SCT250 18/12 A2991
E 54 nm 1930' KDAG 221750Z VRB04KT 10SM CLR 29/02 A2985
S 57 nm 650' KCNO 221822Z 31004KT 3SM HZ OVC010 17/15 A2993
SE 58 nm 1159' KSBD 221751Z 00000KT 2 1/2SM HZ FEW250 19/11 A2991
SW 60 nm 169' KSMO 221751Z 22005KT 4SM BR OVC009 16/14 A2994
S 61 nm 818' KRAL 221753Z 26005KT 2SM HZ OVC007 16/13 A2991
S 62 nm 533' KAJO 221814Z 29006KT 5SM HZ OVC010 17/14 A2993
S 62 nm 96' KFUL 221753Z 22006KT 5SM BR OVC012 17/15 A2992
S 63 nm 65' KHHR 221753Z 20004KT 6SM HZ OVC010 16/13 A2994
SW 63 nm 127' KLAX 221753Z 25007KT 2SM BR OVC007 14/13 A2994
NW 65 nm 509' KBFL 221754Z VRB04KT 10SM CLR 26/11 A2981
S 66 nm 60' KLGB 221753Z 23006KT 7SM OVC008 16/13 A2994
S 67 nm 35' KSLI 221755Z 23007KT 4SM BR OVC008 15/14 A2990
SE 69 nm 1536' KRIV 221755Z 00000KT 10SM CLR 21/15 A2990
S 70 nm 103' KTOA 221747Z 14007KT 3SM BR OVC008 15/13 A2993
SW 72 nm 76' KCMA 221804Z 20006KT 7SM OVC007 16/12 A2993
S 74 nm 55' KSNA 221753Z 22004KT 7SM OVC009 17/14 A2993
SW 77 nm 13' KNTD 221819Z 14005KT 5SM BR BKN007 OVC013 14/13 A2993
SW 77 nm 44' KOXR 221751Z 19003KT 8SM OVC007 14/13 A2993
SE 82 nm 1514' KHMT 221815Z 22008KT 10SM CLR 22/14 A2990
NW 83 nm 316' KDLO 221815Z 00000KT 10SM CLR 24/12 A2982
NW 88 nm 443' KPTV 221756Z 13004KT 10SM CLR 27/13 A2983
E 92 nm 2051' KNXP 221756Z 00000KT 10SM CLR 29/02 A2992
S 94 nm 1602' KAVX 221751Z 26004KT M1/4SM FG VV001 13/12 A2994
SE 94 nm 476' KPSP 221753Z VRB06KT 10SM CLR 31/08 A2982
TAFs for airports near EDW, sorted by distance:
N 0 nm 2311' KEDW TAF KEDW 221245Z 2213/2319 VRB06KT 9999 FEW250 510003 QNH2988INS
  BECMG 2217/2218 24012G20KT 9999 FEW250 510003 QNH2986INS
  BECMG 2220/2221 25015G25KT 9999 FEW250 520005 QNH2983INS
  BECMG 2306/2307 24012KT 9999 SKC QNH2984INS TX31/2221Z TN12/2314Z
SW 19 nm 2350' KWJF TAF KWJF 221732Z 2218/2318 22010KT P6SM SKC
  FM222100 22018G26KT P6SM SKC
  FM230300 25012KT P6SM SKC
SW 19 nm 2542' KPMD TAF KPMD 221732Z 2218/2318 23010KT P6SM SKC
  FM222100 23018G26KT P6SM SKC
  FM230200 23012KT P6SM SKC
N 47 nm 2284' KNID TAF KNID 2215/2315 VRB05KT 9999 FEW270 QNH2976INS WND 13008KT AFT 2219
  BECMG 2220/2222 20012G22KT 9999 FEW080 FEW270 520009 QNH2974INS
  TEMPO 2223/2302 20018G30KT
  BECMG 2302/2304 21010KT 9999 SKC 500000 QNH2978INS TX34/2222Z TN15/2313Z
SW 48 nm 778' KBUR TAF KBUR 221732Z 2218/2318 13007KT 4SM HZ BKN015
  FM222000 17008KT P6SM SCT250
  FM230300 VRB03KT P6SM SKC
  FM230500 VRB03KT P6SM OVC012
  FM230900 VRB03KT 5SM -DZ BR BKN008 OVC015
SW 51 nm 802' KVNY KVNY 221758Z 2218/2318 19006KT 2SM HZ OVC009
  FM222000 14008KT P6SM OVC015
  FM230200 VRB03KT P6SM SKC
  FM230500 VRB03KT P6SM OVC012
  FM230900 VRB03KT 5SM -DZ BR BKN008 OVC015
S 53 nm 944' KONT KONT 221723Z 2218/2324 VRB03KT 2SM BR BKN008
  FM221900 25010KT 3SM HZ BKN010
  TEMPO 2219/2221 SCT010
  FM222100 25012G18KT P6SM SKC
  FM230400 25007KT P6SM FEW012
  FM230700 24005KT P6SM OVC012
  FM231900 25010KT 3SM HZ BKN010
E 54 nm 1930' KDAG TAF KDAG 221720Z 2218/2318 VRB06KT P6SM SKC
  FM222200 24015G25KT P6SM FEW120
  FM230900 27012G20KT P6SM SKC
  FM231200 28010KT P6SM SKC
SE 58 nm 1159' KSBD TAF KSBD 221723Z 2218/2318 VRB03KT 2SM BR BKN008
  FM221930 25010KT 3SM HZ BKN010
  FM222000 25011KT 6SM HZ SKC
  FM230400 25005KT P6SM SKC
  FM230900 VRB04KT 6SM BR OVC010
SW 60 nm 169' KSMO KSMO 221732Z 2218/2318 20005KT 4SM HZ OVC015
  FM222000 23010KT P6SM SCT015
  FM230200 22005KT P6SM OVC015
  FM230800 VRB03KT 5SM -DZ BR BKN008 OVC015
SW 63 nm 127' KLAX TAF
  AMD KLAX 221823Z 2218/2324 25007KT 2SM BR OVC007
  FM222000 26012KT P6SM OVC015
  FM230400 VRB03KT P6SM SCT008 OVC015
  FM230800 VRB03KT 5SM -DZ BR BKN008 OVC015
  FM231600 24006KT 6SM BR SCT008 OVC020
NW 65 nm 509' KBFL TAF KBFL 221720Z 2218/2318 VRB05KT P6SM FEW200
  FM222000 31009KT P6SM SCT250
  FM230000 34012KT P6SM SCT250
S 66 nm 60' KLGB TAF KLGB 221732Z 2218/2318 17005KT 6SM HZ OVC010
  FM222000 20008KT P6SM FEW015
  FM230300 VRB03KT P6SM OVC015
  FM230800 VRB03KT 5SM -DZ BR BKN008 OVC015
S 67 nm 35' KSLI TAF
  AMD KSLI 221800Z 2218/2319 VRB06KT 8000 BR BKN010 BKN017 QNH2984INS
  BECMG 2219/2220 VRB06KT 8000 BR FEW017 QNH2984INS
  BECMG 2306/2307 VRB06KT 8000 BR BKN010 OVC017 QNH2992INS
  BECMG 2311/2312 VRB06KT 8000 BR BKN003 OVC010 QNH2992INS
  BECMG 2313/2314 VRB06KT 8000 BR SCT003 OVC010 QNH2994INS TX20/2223Z TN13/2214Z
SE 69 nm 1536' KRIV TAF TAF
  AMD KRIV 221457Z 2214/2318 30004KT 1600 BR OVC001 QNH2986INS
  BECMG 2215/2216 VRB04KT 1600 BR BKN002 BKN300 QNH2987INS
  BECMG 2216/2217 VRB04KT 6000 HZ SCT003 BKN300 QNH2992INS
  BECMG 2217/2218 31006KT 9999 NSW FEW020 SCT300 QNH2989INS
  BECMG 2219/2220 32009KT 9999 FEW050 FEW300 510006 QNH2983INS
  TEMPO 2222/2301 32012G18KT
  BECMG 2301/2302 30006KT 9999 FEW010 QNH2985INS
  BECMG 2305/2306 28004KT 6000 BR BKN007 QNH2993INS
  BECMG 2308/2309 16004KT 4800 BR OVC005 510609 QNH2992INS
  TEMPO 2312/2315 3200 -DZ BR BKN004 OVC007
  BECMG 2314/2315 16004KT 4800 BR OVC007 510609 QNH2997INS
  BECMG 2316/2317 16004KT 6000 BR OVC010 510609 QNH3000INS TX26/2222Z TN10/2312Z
SW 72 nm 76' KCMA KCMA 221732Z 2218/2318 VRB03KT 5SM BR OVC006
  FM222000 23008KT P6SM SCT012
  FM230200 VRB03KT P6SM OVC012
  FM230800 VRB03KT 5SM -DZ BR BKN008 OVC015
S 74 nm 55' KSNA KSNA 221723Z 2218/2318 VRB03KT P6SM BKN009
  FM221900 21010KT P6SM BKN012
  FM230300 19005KT P6SM OVC015
SW 77 nm 13' KNTD TAF KNTD 2215/2315 VRB03KT 6000 BR OVC007 QNH2987INS
  FM221930 23009KT 9000 BR OVC012 QNH2993INS
  BECMG 2220/2222 23009KT 9000 BKN015 QNH2990INS
  TEMPO 2220/2223 9000 BR SCT015
  BECMG 2201/2303 VRB03KT 8000 BR OVC006 QNH2989INS TX16/2222Z TN12/2314Z FS30215
SW 77 nm 44' KOXR KOXR 221732Z 2218/2318 VRB03KT 5SM BR OVC006
  FM221900 26012KT P6SM OVC012
  FM230400 VRB03KT P6SM OVC012
  FM230800 VRB03KT 5SM -DZ BR BKN008 OVC015
E 92 nm 2051' KNXP TAF KNXP 2215/2315 34003KT 9999 SKC 522709 QNH2990INS
  BECMG 2219/2221 20015G25KT 520009 520909 521809 522709 QNH2985INS
  BECMG 2303/2305 22012KT 520909 521809 522709 QNH2982INS
  FM230830 VRB03KT 9999 FEW250 520909 521809 522709 QNH2984INS T33/2220Z T17/2314Z
SE 94 nm 476' KPSP KPSP 221723Z 2218/2318 11006KT P6SM SKC
  FM222300 33015G25KT P6SM SKC
  FM230700 31005KT P6SM SKC

Shortcut to this page: http://wxbay.com.

Data may contain errors.